createdAt,value
2017-08-06T00:00:26.825Z,14.05
2017-08-06T00:01:26.813Z,14.16
2017-08-06T00:02:26.787Z,14.12
2017-08-06T00:03:26.761Z,14.17
2017-08-06T00:04:26.745Z,14.2
2017-08-06T00:05:26.722Z,14.24
2017-08-06T00:06:26.699Z,14.27
2017-08-06T00:07:26.680Z,14.3
2017-08-06T00:08:26.904Z,14.31
2017-08-06T00:09:26.335Z,14.35
2017-08-06T00:10:26.608Z,14.38
2017-08-06T00:11:26.592Z,14.29
2017-08-06T00:12:26.567Z,14.29
2017-08-06T00:13:26.553Z,14.26
2017-08-06T00:14:26.525Z,14.35
2017-08-06T00:15:26.503Z,14.31
2017-08-06T00:16:26.481Z,14.36
2017-08-06T00:17:26.516Z,14.36
2017-08-06T00:18:26.433Z,14.36
2017-08-06T00:19:26.428Z,14.3
2017-08-06T00:20:26.407Z,14.44
2017-08-06T00:21:26.121Z,14.29
2017-08-06T00:22:26.353Z,14.34
2017-08-06T00:23:26.336Z,14.27
2017-08-06T00:24:26.317Z,14.39
2017-08-06T00:25:26.289Z,14.31
2017-08-06T00:26:25.968Z,14.16
2017-08-06T00:27:26.249Z,14.27
2017-08-06T00:28:26.232Z,14.23
2017-08-06T00:29:26.207Z,14.23
2017-08-06T00:30:26.180Z,14.13
2017-08-06T00:31:26.172Z,14.13
2017-08-06T00:32:26.143Z,14.12
2017-08-06T00:33:26.112Z,14.12
2017-08-06T00:34:26.094Z,14.08
2017-08-06T00:35:25.790Z,14.11
2017-08-06T00:36:26.054Z,14.06
2017-08-06T00:37:25.731Z,14.08
2017-08-06T00:38:26.010Z,14.08
2017-08-06T00:39:25.680Z,14.02
2017-08-06T00:40:25.973Z,14.05
2017-08-06T00:41:25.650Z,14.04
2017-08-06T00:42:25.927Z,14.04
2017-08-06T00:43:25.614Z,13.91
2017-08-06T00:44:25.892Z,13.99
2017-08-06T00:45:26.069Z,13.96
2017-08-06T00:46:25.836Z,13.83
2017-08-06T00:47:25.810Z,13.91
2017-08-06T00:48:25.791Z,13.81
2017-08-06T00:49:40.430Z,13.87
2017-08-06T00:50:25.755Z,13.86
2017-08-06T00:51:25.748Z,13.84
2017-08-06T00:52:25.722Z,13.69
2017-08-06T00:53:25.706Z,13.73
2017-08-06T00:54:25.666Z,13.69
2017-08-06T00:55:25.642Z,13.75
2017-08-06T00:56:25.620Z,13.75
2017-08-06T00:57:25.604Z,13.59
2017-08-06T00:58:25.577Z,13.75
2017-08-06T00:59:25.552Z,13.63
2017-08-06T01:00:25.529Z,13.62
2017-08-06T01:01:25.514Z,13.53
2017-08-06T01:02:25.492Z,13.54
2017-08-06T01:03:25.474Z,13.53
2017-08-06T01:04:25.449Z,13.5
2017-08-06T01:05:25.428Z,13.46
2017-08-06T01:06:25.401Z,13.47
2017-08-06T01:07:25.387Z,13.5
2017-08-06T01:08:25.353Z,13.43
2017-08-06T01:09:25.337Z,13.46
2017-08-06T01:10:25.309Z,13.43
2017-08-06T01:11:25.295Z,13.46
2017-08-06T01:12:25.276Z,13.41
2017-08-06T01:13:25.261Z,13.35
2017-08-06T01:14:25.241Z,13.41
2017-08-06T01:15:25.206Z,13.39
2017-08-06T01:16:25.187Z,13.32
2017-08-06T01:17:25.194Z,13.32
2017-08-06T01:18:25.146Z,13.35
2017-08-06T01:19:25.123Z,13.29
2017-08-06T01:20:25.094Z,13.31
2017-08-06T01:21:25.081Z,13.28
2017-08-06T01:22:24.762Z,13.24
2017-08-06T01:23:25.041Z,13.22
2017-08-06T01:24:25.006Z,13.25
2017-08-06T01:25:24.992Z,13.24
2017-08-06T01:26:24.661Z,13.21
2017-08-06T01:27:24.946Z,13.21
2017-08-06T01:28:24.923Z,13.21
2017-08-06T01:29:24.905Z,13.16
2017-08-06T01:30:24.885Z,13.24
2017-08-06T01:31:24.855Z,13.21
2017-08-06T01:32:24.850Z,13.17
2017-08-06T01:33:24.821Z,13.21
2017-08-06T01:34:24.789Z,13.19
2017-08-06T01:35:24.473Z,13.14
2017-08-06T01:36:24.795Z,13.27
2017-08-06T01:37:24.724Z,13.25
2017-08-06T01:38:24.707Z,13.12
2017-08-06T01:39:24.683Z,13.14
2017-08-06T01:40:24.664Z,13.16
2017-08-06T01:41:24.691Z,13.16
2017-08-06T01:42:24.639Z,13.09
2017-08-06T01:43:24.600Z,13.13
2017-08-06T01:44:24.470Z,13.07
2017-08-06T01:45:24.601Z,13.03
2017-08-06T01:46:24.529Z,13.01
2017-08-06T01:47:24.508Z,13.09
2017-08-06T01:48:23.887Z,13.1
2017-08-06T01:49:24.465Z,13.04
2017-08-06T01:50:24.450Z,13.04
2017-08-06T01:51:24.414Z,12.98
2017-08-06T01:52:24.401Z,13.06
2017-08-06T01:53:24.377Z,13.03
2017-08-06T01:54:24.359Z,13.09
2017-08-06T01:55:24.332Z,13.03
2017-08-06T01:56:24.310Z,13.04
2017-08-06T01:57:24.360Z,12.99
2017-08-06T01:58:24.260Z,12.98
2017-08-06T01:59:24.264Z,12.94
2017-08-06T02:00:24.228Z,12.98
2017-08-06T02:01:24.197Z,12.98
2017-08-06T02:02:24.182Z,12.89
2017-08-06T02:03:24.154Z,12.89
2017-08-06T02:04:24.131Z,12.91
2017-08-06T02:05:24.116Z,13.01
2017-08-06T02:06:24.091Z,12.87
2017-08-06T02:07:24.071Z,12.88
2017-08-06T02:08:23.756Z,12.92
2017-08-06T02:09:24.024Z,12.88
2017-08-06T02:10:24.004Z,12.91
2017-08-06T02:11:23.974Z,12.89
2017-08-06T02:12:24.167Z,12.88
2017-08-06T02:13:23.946Z,12.87
2017-08-06T02:14:23.911Z,12.91
2017-08-06T02:15:23.935Z,12.88
2017-08-06T02:16:23.874Z,12.88
2017-08-06T02:17:23.848Z,12.92
2017-08-06T02:18:23.826Z,12.81
2017-08-06T02:19:23.803Z,12.85
2017-08-06T02:20:23.787Z,12.84
2017-08-06T02:21:23.758Z,12.88
2017-08-06T02:22:23.735Z,12.89
2017-08-06T02:23:23.712Z,12.71
2017-08-06T02:24:23.696Z,12.91
2017-08-06T02:25:23.679Z,12.88
2017-08-06T02:26:23.656Z,12.71
2017-08-06T02:27:23.629Z,12.77
2017-08-06T02:28:23.602Z,12.7
2017-08-06T02:29:23.586Z,12.77
2017-08-06T02:30:23.575Z,12.8
2017-08-06T02:31:23.537Z,12.77
2017-08-06T02:32:23.517Z,12.74
2017-08-06T02:33:23.494Z,12.79
2017-08-06T02:34:23.472Z,12.74
2017-08-06T02:35:23.453Z,12.67
2017-08-06T02:36:23.430Z,12.69
2017-08-06T02:37:23.406Z,12.7
2017-08-06T02:38:23.383Z,12.73
2017-08-06T02:39:23.361Z,12.73
2017-08-06T02:40:23.373Z,12.76
2017-08-06T02:41:23.315Z,12.8
2017-08-06T02:42:23.296Z,12.84
2017-08-06T02:43:23.275Z,12.71
2017-08-06T02:44:23.250Z,12.74
2017-08-06T02:45:23.233Z,12.77
2017-08-06T02:46:23.206Z,12.73
2017-08-06T02:47:23.200Z,12.73
2017-08-06T02:48:23.162Z,12.76
2017-08-06T02:49:23.137Z,12.7
2017-08-06T02:50:23.121Z,12.66
2017-08-06T02:51:23.093Z,12.63
2017-08-06T02:52:23.126Z,12.59
2017-08-06T02:53:23.056Z,12.67
2017-08-06T02:54:22.782Z,12.66
2017-08-06T02:55:23.514Z,12.66
2017-08-06T02:56:22.985Z,12.61
2017-08-06T02:57:22.962Z,12.63
2017-08-06T02:58:22.947Z,12.59
2017-08-06T02:59:22.970Z,12.61
2017-08-06T03:00:22.907Z,12.56
2017-08-06T03:01:22.878Z,12.54
2017-08-06T03:02:22.854Z,12.54
2017-08-06T03:03:22.831Z,12.52
2017-08-06T03:04:22.812Z,12.46
2017-08-06T03:05:22.788Z,12.49
2017-08-06T03:06:22.765Z,12.52
2017-08-06T03:07:22.747Z,12.54
2017-08-06T03:08:22.717Z,12.44
2017-08-06T03:09:22.698Z,12.44
2017-08-06T03:10:22.686Z,12.44
2017-08-06T03:11:22.659Z,12.37
2017-08-06T03:12:22.634Z,12.34
2017-08-06T03:13:22.620Z,12.34
2017-08-06T03:14:22.581Z,12.29
2017-08-06T03:15:22.570Z,12.34
2017-08-06T03:16:22.552Z,12.33
2017-08-06T03:17:22.522Z,12.34
2017-08-06T03:18:22.499Z,12.37
2017-08-06T03:19:22.477Z,12.3
2017-08-06T03:20:22.666Z,12.34
2017-08-06T03:21:22.433Z,12.29
2017-08-06T03:22:22.416Z,12.31
2017-08-06T03:23:22.385Z,12.34
2017-08-06T03:24:22.363Z,12.4
2017-08-06T03:25:22.344Z,12.41
2017-08-06T03:26:22.355Z,12.34
2017-08-06T03:27:22.304Z,12.19
2017-08-06T03:28:22.289Z,12.29
2017-08-06T03:29:22.261Z,12.21
2017-08-06T03:30:22.238Z,12.18
2017-08-06T03:31:22.216Z,12.16
2017-08-06T03:32:22.188Z,12.21
2017-08-06T03:33:22.168Z,12.26
2017-08-06T03:34:21.847Z,12.21
2017-08-06T03:35:22.120Z,12.21
2017-08-06T03:36:22.105Z,12.12
2017-08-06T03:37:22.082Z,12.15
2017-08-06T03:38:22.061Z,12.18
2017-08-06T03:39:22.035Z,12.07
2017-08-06T03:40:22.018Z,12.04
2017-08-06T03:41:21.996Z,12.05
2017-08-06T03:42:22.169Z,12.05
2017-08-06T03:43:21.942Z,12.08
2017-08-06T03:44:21.922Z,12.08
2017-08-06T03:45:21.904Z,12.01
2017-08-06T03:46:21.884Z,12.05
2017-08-06T03:47:21.856Z,12.08
2017-08-06T03:48:21.834Z,12.12
2017-08-06T03:49:22.022Z,12.11
2017-08-06T03:50:21.788Z,12.05
2017-08-06T03:51:21.771Z,12.04
2017-08-06T03:52:21.749Z,12.03
2017-08-06T03:53:21.780Z,11.97
2017-08-06T03:54:21.408Z,11.97
2017-08-06T03:55:21.680Z,12.04
2017-08-06T03:56:21.654Z,12
2017-08-06T03:57:21.632Z,11.98
2017-08-06T03:58:21.612Z,11.97
2017-08-06T03:59:21.596Z,11.97
2017-08-06T04:00:21.619Z,12
2017-08-06T04:01:21.546Z,11.96
2017-08-06T04:02:21.223Z,12
2017-08-06T04:03:21.499Z,11.98
2017-08-06T04:04:21.479Z,11.94
2017-08-06T04:05:21.469Z,11.98
2017-08-06T04:06:21.504Z,12
2017-08-06T04:07:21.413Z,11.88
2017-08-06T04:08:21.444Z,11.98
2017-08-06T04:09:21.071Z,11.93
2017-08-06T04:10:21.057Z,12
2017-08-06T04:11:21.325Z,11.97
2017-08-06T04:12:21.303Z,11.98
2017-08-06T04:13:21.302Z,11.98
2017-08-06T04:14:21.254Z,11.96
2017-08-06T04:15:21.235Z,11.93
2017-08-06T04:16:21.214Z,11.98
2017-08-06T04:17:21.193Z,12
2017-08-06T04:18:21.168Z,12.05
2017-08-06T04:19:21.143Z,11.96
2017-08-06T04:20:21.117Z,12
2017-08-06T04:21:21.102Z,11.98
2017-08-06T04:22:21.085Z,12.07
2017-08-06T04:23:21.117Z,12.07
2017-08-06T04:24:21.034Z,12.13
2017-08-06T04:25:21.016Z,12.08
2017-08-06T04:26:20.996Z,12.18
2017-08-06T04:27:20.968Z,12.33
2017-08-06T04:28:20.641Z,12.43
2017-08-06T04:29:20.920Z,12.54
2017-08-06T04:30:20.921Z,12.63
2017-08-06T04:31:20.878Z,12.8
2017-08-06T04:32:20.873Z,12.91
2017-08-06T04:33:20.840Z,12.98
2017-08-06T04:34:20.822Z,13.01
2017-08-06T04:35:20.792Z,13.07
2017-08-06T04:36:20.166Z,13.12
2017-08-06T04:37:20.745Z,13.19
2017-08-06T04:38:20.734Z,13.32
2017-08-06T04:39:20.402Z,13.46
2017-08-06T04:40:20.681Z,13.62
2017-08-06T04:41:20.661Z,13.69
2017-08-06T04:42:20.636Z,13.76
2017-08-06T04:43:20.611Z,13.75
2017-08-06T04:44:20.602Z,13.87
2017-08-06T04:45:20.589Z,13.98
2017-08-06T04:46:20.550Z,14.06
2017-08-06T04:47:20.534Z,14.16
2017-08-06T04:48:20.560Z,14.11
2017-08-06T04:49:20.488Z,14.23
2017-08-06T04:50:20.465Z,14.41
2017-08-06T04:51:20.446Z,14.42
2017-08-06T04:52:20.125Z,14.54
2017-08-06T04:53:20.403Z,14.61
2017-08-06T04:54:20.085Z,14.63
2017-08-06T04:55:20.365Z,14.67
2017-08-06T04:56:20.341Z,14.71
2017-08-06T04:57:20.322Z,14.83
2017-08-06T04:58:20.299Z,14.85
2017-08-06T04:59:20.347Z,14.97
2017-08-06T05:00:20.252Z,15.03
2017-08-06T05:01:20.239Z,15.13
2017-08-06T05:02:20.222Z,15.25
2017-08-06T05:03:20.198Z,15.33
2017-08-06T05:04:20.176Z,15.44
2017-08-06T05:05:20.153Z,15.62
2017-08-06T05:06:20.133Z,15.91
2017-08-06T05:07:20.112Z,15.89
2017-08-06T05:08:20.105Z,15.99
2017-08-06T05:09:20.072Z,15.98
2017-08-06T05:10:20.059Z,16.1
2017-08-06T05:11:20.033Z,16.23
2017-08-06T05:12:20.014Z,16.34
2017-08-06T05:13:20.054Z,16.44
2017-08-06T05:14:19.973Z,16.66
2017-08-06T05:15:20.008Z,16.81
2017-08-06T05:16:19.633Z,16.72
2017-08-06T05:17:19.964Z,16.9
2017-08-06T05:18:19.891Z,16.92
2017-08-06T05:19:19.569Z,16.88
2017-08-06T05:20:19.848Z,16.92
2017-08-06T05:21:19.845Z,16.92
2017-08-06T05:22:19.817Z,17.03
2017-08-06T05:23:19.789Z,17
2017-08-06T05:24:19.772Z,17.21
2017-08-06T05:25:19.764Z,17.32
2017-08-06T05:26:19.737Z,17.39
2017-08-06T05:27:19.720Z,17.33
2017-08-06T05:28:19.702Z,17.36
2017-08-06T05:29:19.731Z,17.57
2017-08-06T05:30:19.656Z,17.66
2017-08-06T05:31:19.646Z,17.83
2017-08-06T05:32:19.627Z,17.99
2017-08-06T05:33:19.608Z,18.07
2017-08-06T05:34:19.583Z,18.2
2017-08-06T05:35:19.562Z,18.35
2017-08-06T05:36:19.549Z,18.62
2017-08-06T05:37:19.525Z,18.53
2017-08-06T05:38:19.208Z,18.51
2017-08-06T05:39:19.505Z,18.68
2017-08-06T05:40:19.473Z,18.75
2017-08-06T05:41:19.452Z,18.75
2017-08-06T05:42:19.452Z,18.9
2017-08-06T05:43:19.421Z,18.72
2017-08-06T05:44:19.398Z,18.83
2017-08-06T05:45:19.390Z,19.12
2017-08-06T05:46:19.375Z,19.15
2017-08-06T05:47:19.400Z,19.21
2017-08-06T05:48:19.334Z,19.2
2017-08-06T05:49:19.314Z,19.31
2017-08-06T05:50:19.296Z,19.42
2017-08-06T05:51:19.285Z,19.45
2017-08-06T05:52:19.261Z,19.57
2017-08-06T05:53:19.282Z,19.71
2017-08-06T05:54:19.221Z,19.82
2017-08-06T05:55:19.210Z,19.98
2017-08-06T05:56:18.890Z,19.97
2017-08-06T05:57:19.173Z,20.02
2017-08-06T05:58:19.209Z,20.12
2017-08-06T05:59:19.139Z,20.16
2017-08-06T06:00:19.120Z,20.17
2017-08-06T06:01:19.106Z,20.16
2017-08-06T06:02:19.337Z,20.07
2017-08-06T06:03:19.068Z,20.13
2017-08-06T06:04:19.057Z,20.2
2017-08-06T06:05:19.036Z,20.42
2017-08-06T06:06:19.018Z,20.76
2017-08-06T06:07:18.997Z,20.88
2017-08-06T06:08:18.986Z,20.85
2017-08-06T06:09:18.972Z,21.09
2017-08-06T06:10:18.957Z,21.24
2017-08-06T06:11:18.946Z,21.22
2017-08-06T06:12:18.919Z,21.34
2017-08-06T06:13:18.901Z,21.45
2017-08-06T06:14:18.889Z,21.59
2017-08-06T06:15:18.873Z,21.53
2017-08-06T06:16:18.906Z,21.64
2017-08-06T06:17:18.546Z,21.75
2017-08-06T06:18:18.821Z,21.82
2017-08-06T06:19:18.811Z,22.09
2017-08-06T06:20:18.803Z,22.2
2017-08-06T06:21:18.786Z,22.35
2017-08-06T06:22:18.769Z,22.39
2017-08-06T06:23:18.802Z,22.41
2017-08-06T06:24:18.733Z,22.38
2017-08-06T06:25:18.715Z,22.38
2017-08-06T06:26:18.704Z,22.42
2017-08-06T06:27:18.693Z,22.46
2017-08-06T06:28:18.679Z,22.6
2017-08-06T06:29:18.720Z,22.81
2017-08-06T06:30:18.342Z,23.18
2017-08-06T06:31:18.624Z,23.09
2017-08-06T06:32:18.619Z,23.12
2017-08-06T06:33:18.600Z,23.09
2017-08-06T06:34:18.584Z,23.06
2017-08-06T06:35:18.565Z,23.16
2017-08-06T06:36:18.552Z,23.29
2017-08-06T06:37:18.539Z,23.26
2017-08-06T06:38:18.230Z,22.99
2017-08-06T06:39:18.510Z,22.81
2017-08-06T06:40:18.499Z,22.66
2017-08-06T06:41:18.486Z,22.48
2017-08-06T06:42:18.478Z,22.09
2017-08-06T06:43:18.457Z,22.01
2017-08-06T06:44:18.443Z,22.17
2017-08-06T06:45:18.427Z,22.45
2017-08-06T06:46:18.406Z,22.76
2017-08-06T06:47:18.393Z,23.12
2017-08-06T06:48:18.389Z,23.37
2017-08-06T06:49:18.364Z,23.56
2017-08-06T06:50:18.351Z,23.78
2017-08-06T06:51:18.336Z,23.99
2017-08-06T06:52:18.331Z,24.12
2017-08-06T06:53:18.357Z,24.18
2017-08-06T06:54:18.308Z,24.27
2017-08-06T06:55:18.283Z,24.33
2017-08-06T06:56:18.270Z,24.26
2017-08-06T06:57:18.264Z,24.39
2017-08-06T06:58:18.247Z,24.36
2017-08-06T06:59:18.228Z,24.45
2017-08-06T07:00:18.222Z,24.36
2017-08-06T07:01:18.209Z,24.6
2017-08-06T07:02:18.192Z,24.79
2017-08-06T07:03:18.189Z,24.79
2017-08-06T07:04:18.164Z,24.86
2017-08-06T07:05:18.213Z,24.97
2017-08-06T07:06:17.850Z,24.99
2017-08-06T07:07:18.141Z,25.17
2017-08-06T07:08:18.124Z,25.29
2017-08-06T07:09:17.801Z,25.44
2017-08-06T07:10:18.096Z,25.76
2017-08-06T07:11:18.084Z,25.94
2017-08-06T07:12:18.070Z,26.04
2017-08-06T07:13:18.059Z,26.13
2017-08-06T07:14:18.044Z,26.12
2017-08-06T07:15:18.037Z,26.24
2017-08-06T07:16:18.021Z,26.36
2017-08-06T07:17:18.006Z,26.6
2017-08-06T07:18:17.999Z,26.78
2017-08-06T07:19:17.983Z,26.83
2017-08-06T07:20:17.978Z,26.94
2017-08-06T07:21:17.970Z,26.93
2017-08-06T07:22:17.964Z,26.91
2017-08-06T07:23:17.945Z,26.86
2017-08-06T07:24:17.940Z,26.91
2017-08-06T07:25:17.922Z,26.96
2017-08-06T07:26:17.915Z,26.9
2017-08-06T07:27:17.919Z,26.94
2017-08-06T07:28:17.903Z,26.83
2017-08-06T07:29:17.595Z,26.78
2017-08-06T07:30:17.572Z,26.68
2017-08-06T07:31:17.856Z,26.59
2017-08-06T07:32:18.159Z,26.65
2017-08-06T07:33:17.839Z,26.68
2017-08-06T07:34:17.830Z,26.78
2017-08-06T07:35:17.821Z,26.91
2017-08-06T07:36:17.819Z,26.98
2017-08-06T07:37:17.797Z,26.83
2017-08-06T07:38:17.803Z,26.64
2017-08-06T07:39:17.785Z,26.69
2017-08-06T07:40:17.763Z,26.64
2017-08-06T07:41:17.754Z,26.5
2017-08-06T07:42:17.446Z,26.47
2017-08-06T07:43:17.791Z,26.51
2017-08-06T07:44:17.775Z,26.59
2017-08-06T07:45:17.713Z,26.73
2017-08-06T07:46:17.705Z,27.06
2017-08-06T07:47:17.694Z,27.09
2017-08-06T07:48:17.676Z,27.25
2017-08-06T07:49:17.688Z,27.16
2017-08-06T07:50:17.665Z,27.08
2017-08-06T07:51:17.711Z,27.27
2017-08-06T07:52:17.648Z,27.46
2017-08-06T07:53:17.658Z,27.65
2017-08-06T07:54:17.619Z,27.74
2017-08-06T07:55:17.632Z,27.77
2017-08-06T07:56:17.609Z,27.88
2017-08-06T07:57:17.600Z,27.95
2017-08-06T07:58:17.592Z,27.88
2017-08-06T07:59:17.577Z,27.72
2017-08-06T08:00:17.620Z,27.55
2017-08-06T08:01:17.564Z,27.42
2017-08-06T08:02:17.553Z,27.38
2017-08-06T08:03:17.548Z,27.31
2017-08-06T08:04:17.530Z,27.34
2017-08-06T08:05:17.528Z,27.38
2017-08-06T08:06:17.522Z,27.2
2017-08-06T08:07:17.508Z,26.96
2017-08-06T08:08:17.199Z,26.71
2017-08-06T08:09:17.485Z,26.81
2017-08-06T08:10:17.476Z,27.13
2017-08-06T08:11:17.226Z,27.49
2017-08-06T08:12:17.459Z,27.63
2017-08-06T08:13:17.449Z,27.43
2017-08-06T08:14:17.435Z,27.34
2017-08-06T08:15:17.473Z,27.48
2017-08-06T08:16:17.421Z,27.69
2017-08-06T08:17:17.404Z,27.93
2017-08-06T08:18:17.396Z,28.06
2017-08-06T08:19:17.389Z,28.24
2017-08-06T08:20:17.380Z,28.32
2017-08-06T08:21:17.372Z,28.61
2017-08-06T08:22:17.421Z,28.83
2017-08-06T08:23:17.354Z,28.91
2017-08-06T08:24:17.338Z,29.15
2017-08-06T08:25:17.337Z,29.32
2017-08-06T08:26:17.380Z,29.18
2017-08-06T08:27:17.325Z,29.3
2017-08-06T08:28:17.325Z,29.45
2017-08-06T08:29:17.298Z,29.39
2017-08-06T08:30:17.297Z,29.17
2017-08-06T08:31:17.280Z,29.07
2017-08-06T08:32:17.279Z,29.29
2017-08-06T08:33:17.268Z,29.66
2017-08-06T08:34:17.260Z,29.78
2017-08-06T08:35:17.257Z,29.86
2017-08-06T08:36:16.948Z,30.08
2017-08-06T08:37:17.237Z,29.94
2017-08-06T08:38:17.246Z,29.47
2017-08-06T08:39:17.237Z,28.87
2017-08-06T08:40:16.965Z,28.35
2017-08-06T08:41:17.209Z,28.24
2017-08-06T08:42:17.199Z,28.43
2017-08-06T08:43:17.215Z,28.89
2017-08-06T08:44:17.195Z,29.15
2017-08-06T08:45:16.877Z,29.42
2017-08-06T08:46:17.198Z,29.27
2017-08-06T08:47:17.165Z,28.76
2017-08-06T08:48:17.154Z,28.02
2017-08-06T08:49:17.142Z,27.27
2017-08-06T08:50:17.081Z,26.64
2017-08-06T08:51:17.140Z,26.09
2017-08-06T08:52:17.118Z,25.98
2017-08-06T08:53:17.110Z,26.01
2017-08-06T08:54:17.154Z,26.47
2017-08-06T08:55:17.087Z,26.41
2017-08-06T08:56:17.077Z,26.53
2017-08-06T08:57:17.115Z,26.79
2017-08-06T08:58:17.051Z,26.97
2017-08-06T08:59:17.044Z,27.31
2017-08-06T09:00:16.727Z,27.2
2017-08-06T09:01:16.724Z,26.88
2017-08-06T09:02:17.023Z,26.59
2017-08-06T09:03:16.715Z,26.5
2017-08-06T09:04:16.690Z,26.83
2017-08-06T09:05:16.977Z,27.24
2017-08-06T09:06:16.982Z,27.77
2017-08-06T09:07:16.970Z,28.06
2017-08-06T09:08:16.960Z,28.05
2017-08-06T09:09:16.947Z,28.2
2017-08-06T09:10:16.942Z,28.42
2017-08-06T09:11:17.132Z,28.67
2017-08-06T09:12:16.917Z,28.87
2017-08-06T09:13:16.968Z,29.08
2017-08-06T09:14:16.898Z,29.14
2017-08-06T09:15:16.890Z,28.87
2017-08-06T09:16:16.878Z,28.33
2017-08-06T09:17:16.572Z,27.83
2017-08-06T09:18:16.556Z,27.09
2017-08-06T09:19:16.850Z,26.49
2017-08-06T09:20:16.897Z,26
2017-08-06T09:21:16.831Z,25.75
2017-08-06T09:22:16.819Z,26
2017-08-06T09:23:16.817Z,26.09
2017-08-06T09:24:16.798Z,25.9
2017-08-06T09:25:16.790Z,25.69
2017-08-06T09:26:16.824Z,25.49
2017-08-06T09:27:16.780Z,25.48
2017-08-06T09:28:16.761Z,25.27
2017-08-06T09:29:16.446Z,25.04
2017-08-06T09:30:16.731Z,24.82
2017-08-06T09:31:16.736Z,25.04
2017-08-06T09:32:16.714Z,25.6
2017-08-06T09:33:16.698Z,26.03
2017-08-06T09:34:16.708Z,26.44
2017-08-06T09:35:16.678Z,26.73
2017-08-06T09:36:16.663Z,27.23
2017-08-06T09:37:16.657Z,27.55
2017-08-06T09:38:16.642Z,27.91
2017-08-06T09:39:16.650Z,27.96
2017-08-06T09:40:16.633Z,27.61
2017-08-06T09:41:16.308Z,27.27
2017-08-06T09:42:16.802Z,26.69
2017-08-06T09:43:16.637Z,26.46
2017-08-06T09:44:16.575Z,26.6
2017-08-06T09:45:16.604Z,27.08
2017-08-06T09:46:16.557Z,27.31
2017-08-06T09:47:16.543Z,27.74
2017-08-06T09:48:16.539Z,28.14
2017-08-06T09:49:16.568Z,28.24
2017-08-06T09:50:16.520Z,28.36
2017-08-06T09:51:16.200Z,28.5
2017-08-06T09:52:16.488Z,28.72
2017-08-06T09:53:31.096Z,28.97
2017-08-06T09:54:16.476Z,28.97
2017-08-06T09:55:16.526Z,28.76
2017-08-06T09:56:16.458Z,28.4
2017-08-06T09:57:16.495Z,27.69
2017-08-06T09:58:16.466Z,27.24
2017-08-06T09:59:16.478Z,26.9
2017-08-06T10:00:16.421Z,26.29
2017-08-06T10:01:16.411Z,25.94
2017-08-06T10:02:16.396Z,25.97
2017-08-06T10:03:16.397Z,26.36
2017-08-06T10:04:16.382Z,26.72
2017-08-06T10:05:16.369Z,27.23
2017-08-06T10:06:16.381Z,27.45
2017-08-06T10:07:16.364Z,27.78
2017-08-06T10:08:16.332Z,27.98
2017-08-06T10:09:16.330Z,28.32
2017-08-06T10:10:16.337Z,28.23
2017-08-06T10:11:16.304Z,27.9
2017-08-06T10:12:16.309Z,27.03
2017-08-06T10:13:16.283Z,26.28
2017-08-06T10:14:15.977Z,26.08
2017-08-06T10:15:15.656Z,26.31
2017-08-06T10:16:16.255Z,26.42
2017-08-06T10:17:16.246Z,26.86
2017-08-06T10:18:16.235Z,27.12
2017-08-06T10:19:16.231Z,27.45
2017-08-06T10:20:16.226Z,27.68
2017-08-06T10:21:16.210Z,27.96
2017-08-06T10:22:16.209Z,27.96
2017-08-06T10:23:16.240Z,27.93
2017-08-06T10:24:16.180Z,27.98
2017-08-06T10:25:16.171Z,27.96
2017-08-06T10:26:15.861Z,27.84
2017-08-06T10:27:16.152Z,27.5
2017-08-06T10:28:16.200Z,27.12
2017-08-06T10:29:16.130Z,26.64
2017-08-06T10:30:16.126Z,26.08
2017-08-06T10:31:15.810Z,25.71
2017-08-06T10:32:16.097Z,25.17
2017-08-06T10:33:16.092Z,24.83
2017-08-06T10:34:16.075Z,24.86
2017-08-06T10:35:16.060Z,25.12
2017-08-06T10:36:16.069Z,25.57
2017-08-06T10:37:16.043Z,25.91
2017-08-06T10:38:16.036Z,26.2
2017-08-06T10:39:15.722Z,26.57
2017-08-06T10:40:16.016Z,26.76
2017-08-06T10:41:16.009Z,26.81
2017-08-06T10:42:15.693Z,26.42
2017-08-06T10:43:16.226Z,26
2017-08-06T10:44:15.967Z,25.86
2017-08-06T10:45:15.655Z,25.74
2017-08-06T10:46:15.950Z,25.56
2017-08-06T10:47:15.933Z,25.41
2017-08-06T10:48:15.934Z,25.08
2017-08-06T10:49:15.920Z,25.29
2017-08-06T10:50:15.907Z,25.44
2017-08-06T10:51:15.588Z,25.66
2017-08-06T10:52:15.876Z,26.03
2017-08-06T10:53:15.880Z,26.28
2017-08-06T10:54:15.854Z,26.36
2017-08-06T10:55:15.853Z,26.17
2017-08-06T10:56:15.841Z,25.97
2017-08-06T10:57:15.832Z,25.9
2017-08-06T10:58:15.816Z,25.69
2017-08-06T10:59:15.806Z,25.69
2017-08-06T11:00:15.502Z,25.61
2017-08-06T11:01:15.794Z,25.39
2017-08-06T11:02:15.778Z,25.31
2017-08-06T11:03:15.769Z,25.27
2017-08-06T11:04:15.756Z,25.19
2017-08-06T11:05:15.755Z,25.01
2017-08-06T11:06:15.744Z,24.9
2017-08-06T11:07:15.788Z,24.8
2017-08-06T11:08:15.717Z,24.8
2017-08-06T11:09:15.710Z,24.68
2017-08-06T11:10:15.697Z,24.7
2017-08-06T11:11:15.696Z,24.64
2017-08-06T11:12:15.667Z,24.66
2017-08-06T11:13:15.657Z,24.68
2017-08-06T11:14:15.651Z,24.51
2017-08-06T11:15:15.639Z,24.48
2017-08-06T11:16:15.616Z,24.37
2017-08-06T11:17:15.614Z,24.3
2017-08-06T11:18:15.652Z,24.36
2017-08-06T11:19:15.582Z,24.41
2017-08-06T11:20:15.585Z,24.41
2017-08-06T11:21:15.558Z,24.39
2017-08-06T11:22:15.543Z,24.34
2017-08-06T11:23:15.531Z,24.37
2017-08-06T11:24:15.506Z,24.31
2017-08-06T11:25:15.510Z,24.26
2017-08-06T11:26:15.479Z,24.39
2017-08-06T11:27:15.224Z,24.41
2017-08-06T11:28:15.452Z,24.37
2017-08-06T11:29:15.440Z,24.29
2017-08-06T11:30:15.423Z,24.3
2017-08-06T11:31:15.407Z,24.12
2017-08-06T11:32:15.403Z,24.23
2017-08-06T11:33:15.371Z,24.11
2017-08-06T11:34:15.367Z,24.12
2017-08-06T11:35:15.344Z,24.09
2017-08-06T11:36:15.326Z,24.16
2017-08-06T11:37:15.314Z,24.04
2017-08-06T11:38:15.293Z,24.08
2017-08-06T11:39:15.283Z,23.99
2017-08-06T11:40:15.316Z,23.9
2017-08-06T11:41:15.258Z,23.75
2017-08-06T11:42:15.244Z,23.63
2017-08-06T11:43:15.254Z,23.5
2017-08-06T11:44:15.207Z,23.39
2017-08-06T11:45:15.200Z,23.22
2017-08-06T11:46:15.172Z,23.15
2017-08-06T11:47:15.158Z,23.18
2017-08-06T11:48:15.144Z,23.25
2017-08-06T11:49:15.128Z,23.34
2017-08-06T11:50:15.115Z,23.37
2017-08-06T11:51:15.102Z,23.45
2017-08-06T11:52:15.140Z,23.59
2017-08-06T11:53:15.059Z,23.59
2017-08-06T11:54:15.050Z,23.62
2017-08-06T11:55:15.023Z,23.63
2017-08-06T11:56:15.033Z,23.79
2017-08-06T11:57:15.052Z,23.9
2017-08-06T11:58:14.979Z,23.87
2017-08-06T11:59:14.971Z,23.94
2017-08-06T12:00:14.646Z,23.92
2017-08-06T12:01:14.628Z,23.89
2017-08-06T12:02:14.908Z,23.92
2017-08-06T12:03:14.902Z,23.9
2017-08-06T12:04:14.880Z,23.89
2017-08-06T12:05:14.863Z,23.63
2017-08-06T12:06:14.842Z,23.57
2017-08-06T12:07:14.838Z,23.5
2017-08-06T12:08:14.816Z,23.44
2017-08-06T12:09:14.495Z,23.16
2017-08-06T12:10:14.790Z,23.09
2017-08-06T12:11:14.762Z,23.04
2017-08-06T12:12:14.744Z,23.12
2017-08-06T12:13:14.742Z,23.21
2017-08-06T12:14:14.713Z,23.14
2017-08-06T12:15:14.688Z,23.16
2017-08-06T12:16:14.681Z,23.23
2017-08-06T12:17:14.667Z,23.25
2017-08-06T12:18:14.643Z,23.31
2017-08-06T12:19:14.619Z,23.38
2017-08-06T12:20:14.304Z,23.47
2017-08-06T12:21:14.597Z,23.63
2017-08-06T12:22:14.325Z,23.67
2017-08-06T12:23:14.581Z,23.79
2017-08-06T12:24:14.549Z,23.75
2017-08-06T12:25:14.527Z,23.81
2017-08-06T12:26:14.512Z,23.78
2017-08-06T12:27:14.499Z,23.78
2017-08-06T12:28:14.479Z,23.9
2017-08-06T12:29:14.464Z,23.97
2017-08-06T12:30:14.442Z,24.06
2017-08-06T12:31:14.428Z,24.12
2017-08-06T12:32:14.418Z,24.11
2017-08-06T12:33:14.394Z,24.34
2017-08-06T12:34:14.071Z,24.44
2017-08-06T12:35:14.366Z,24.42
2017-08-06T12:36:14.349Z,24.56
2017-08-06T12:37:14.333Z,24.71
2017-08-06T12:38:14.371Z,24.59
2017-08-06T12:39:14.301Z,24.53
2017-08-06T12:40:14.287Z,24.46
2017-08-06T12:41:14.263Z,24.45
2017-08-06T12:42:14.251Z,24.37
2017-08-06T12:43:14.233Z,24.37
2017-08-06T12:44:13.913Z,24.33
2017-08-06T12:45:14.210Z,24.31
2017-08-06T12:46:14.446Z,24.39
2017-08-06T12:47:14.170Z,24.44
2017-08-06T12:48:14.156Z,24.48
2017-08-06T12:49:14.152Z,24.48
2017-08-06T12:50:14.122Z,24.44
2017-08-06T12:51:14.116Z,24.51
2017-08-06T12:52:14.090Z,24.55
2017-08-06T12:53:14.078Z,24.46
2017-08-06T12:54:14.077Z,24.48
2017-08-06T12:55:14.053Z,24.37